x

N01 - Northeast Channel (44024) Wave Buoy

5:04am - Tue 21st Apr 2015 All times are ADT. -3 hours from GMT.

  • Sig Wave height 9.2ft
  • Peak Period 8s
  • Wind
    22mph, 25mph gusts
  • Sea Temp 35°f
  • Air Temp 41°f
  • Sea Pressure 1014.5mb
  • N01 - Northeast Channel
  • N01 - Northeast Channel

More Historic Weather Station data

Upgrade to MSW Pro to gain access to the past 30 days of data for over 8000 Wavebouys and Weather Stations around the globe.

Join Pro

Comparision Forecast

View Surf forecast
   
Tue 04/21 5:04am 9ft 8s 22 25 mph 1014.5mb 35f 41f
4:04am 10.5ft 8s 22 27 mph 1016mb 35f 40f
3:04am 8ft 8s 27 31 mph 1016.7mb 36f 41f
2:04am 7ft 6s 27 29 mph 1018.1mb 36f 42f
1:04am 6.5ft 6s 22 27 mph 1019.2mb 35f 41f
12:04am  -   -  22 25 mph 1019.9mb - 40f
Mon 04/20 11:04pm 7ft 6s 22 27 mph 1020.3mb 35f 40f
10:04pm 6ft 6s 27 31 mph 1020.4mb 35f 41f
8:04pm 4.5ft 5s 22 27 mph 1021.8mb 35f 41f
6:04pm 3.5ft 5s 16 18 mph 1023.7mb 36f 39f
5:04pm 3ft 5s 16 18 mph 1023.8mb 35f 39f
4:04pm 3.5ft 4s 16 18 mph 1024.1mb 35f 38f
3:04pm 2ft 4s 16 18 mph 1025.1mb 36f 38f
2:04pm 2ft 3s 16 18 mph 1025.5mb 36f 38f
1:04pm 2.5ft 8s 16 18 mph 1026.2mb 35f 37f
12:04pm 2ft 6s 13
mph
1026.6mb 36f 37f
11:04am 2ft 6s 11
mph
1026.8mb 36f 37f
10:04am 2.5ft 6s 11
mph
1026.4mb 36f 37f
9:04am 2.5ft 8s 9
mph
1026.2mb 35f 36f
8:04am 3ft 5s 4
mph
1026.3mb 35f 36f
7:04am 3.5ft 5s 7
mph
1025.4mb 35f 35f
6:04am 3ft 6s 2
mph
1025.4mb 35f 34f
5:04am 2.5ft 6s  -  2 mph 1025.1mb 36f 35f
4:04am 2.5ft 8s 4 7 mph 1024.9mb 36f 35f
3:04am 2.5ft 8s 7
mph
1025.4mb 36f 35f
2:04am 2.5ft 6s 4 7 mph 1025.1mb 36f 35f
1:04am 2.5ft 8s 7
mph
1025.7mb 36f 35f
12:04am 2.5ft 8s 4 7 mph 1025.4mb 36f 35f
Sun 04/19 11:04pm 2.5ft 6s 2 4 mph 1025.4mb 36f 35f
10:04pm 3ft 6s 4
mph
1025.5mb 36f 35f
7:04pm 4.5ft 6s 4 7 mph 1023.8mb 36f 35f
6:04pm 4ft 6s 7 9 mph 1023.7mb 36f 35f
5:04pm 4.5ft 6s 9
mph
1023.6mb 36f 36f
4:04pm 4ft 8s 7 9 mph 1023.5mb 36f 36f
3:04pm 3.5ft 6s 4 7 mph 1023.2mb 36f 36f
2:04pm 3.5ft 6s 7
mph
1022.9mb 36f 35f
1:04pm  -   -  7
mph
1022.5mb - 35f
12:04pm 4ft 6s 7 9 mph 1022.5mb 35f 35f
11:04am 4.5ft 6s 9 11 mph 1021.7mb 35f 34f
10:04am 5ft 6s 13 16 mph 1021.1mb 35f 35f
9:04am 5ft 5s 9
mph
1020.7mb 35f 35f
8:04am 5ft 5s 13 16 mph 1019.5mb 35f 35f
7:04am 5ft 5s  -  mph - 35f -
5:04am 4.5ft 8s  -  mph - 35f -
3:04am 4.5ft 8s 20 25 mph 1013.1mb 35f 36f
2:04am 4ft 8s 16 20 mph 1012.8mb 35f 38f
1:04am 4ft 8s 9 13 mph - 35f 37f
12:04am 5ft 8s 7 9 mph 1014.2mb 35f 38f
Sat 04/18 11:04pm 4ft 8s 7 11 mph 1013.6mb 35f 37f
9:04pm 5ft 8s 16 18 mph 1011.2mb 35f 37f
7:04pm 5ft 8s 11 13 mph 1012.3mb 35f 37f
6:04pm 4.5ft 8s 11 13 mph 1012.1mb 35f 37f
5:04pm 4ft 8s 9 11 mph 1011.5mb 36f 38f
4:04pm 5ft 8s 9 11 mph 1011.4mb 37f 38f
2:04pm 5ft 8s 7 9 mph 1012.5mb 36f 39f
1:04pm 4.5ft 8s 4
mph
1012.5mb 35f 40f
12:04pm 4.5ft 8s 4
mph
1012.6mb 36f 41f
11:04am 4.5ft 6s 2
mph
1012.6mb 35f 39f
10:04am 4.5ft 8s 4
mph
1012.1mb 35f 39f
9:04am 4ft 8s 4 7 mph 1011.5mb 35f 38f
8:04am 5ft 8s 4 7 mph 1011.3mb 35f 38f
7:04am 5ft 8s 7 9 mph 1011mb 35f 37f
6:04am 4.5ft 8s 9
mph
1010.4mb 35f 37f
5:04am 5ft 8s 11
mph
1010.3mb 35f 37f
4:04am 5.5ft 8s 13
mph
1010mb 35f 37f
3:04am 5.5ft 8s 13
mph
1010mb 35f 37f
2:04am 6.5ft 8s 13
mph
1010.1mb 35f 37f
1:04am 8ft 6s 13
mph
1010.3mb 35f 38f
12:04am 6ft 6s 11 13 mph 1010.3mb 35f 38f
Fri 04/17 11:04pm 5.5ft 6s 13 16 mph 1010.3mb 35f 40f
10:04pm 6.5ft 6s 11 13 mph 1010.5mb 34f 39f
9:04pm 5ft 6s 13 16 mph 1010.5mb 34f 40f
7:04pm 5.5ft 5s 18 20 mph 1010.6mb 35f 42f
6:04pm 5ft 5s 18 22 mph 1011.4mb 35f 42f
5:04pm 5ft 5s 16 18 mph 1012.1mb 35f 41f
4:04pm 5ft 5s 18 20 mph 1012.5mb 35f 41f
3:04pm 4.5ft 5s 18 20 mph 1013.7mb 34f 41f
2:04pm 4.5ft 5s 18
mph
1014.9mb 34f 41f
11:04am 3.5ft 5s  -  mph - 34f -
10:04am 4.5ft 5s  -  mph - 36f -